Time;durP1;ratioP1;P1;durP2;ratioP2;P2;SDS_P1;SDS_P2;PMS_P1;PMS_P2;Temp;Humidity;BMP_temperature;BMP_pressure;BME280_temperature;BME280_humidity;BME280_pressure;Samples;Min_cycle;Max_cycle;Signal;HPM_P1;HPM_P2
2022/11/03 00:01:47;;;;;;;4.63;0.30;;;11.40;84.40;;;;;;4857919;29;20056;-89
2022/11/03 00:04:16;;;;;;;3.25;0.45;;;11.30;84.40;;;;;;4858114;29;20066;-88
2022/11/03 00:06:46;;;;;;;4.40;0.50;;;11.30;84.60;;;;;;4892191;29;20401;-88
2022/11/03 00:09:15;;;;;;;7.80;0.50;;;11.30;84.70;;;;;;4863787;29;20056;-88
2022/11/03 00:11:47;;;;;;;3.92;0.45;;;11.30;84.80;;;;;;4860931;29;20105;-88
2022/11/03 00:14:18;;;;;;;5.40;0.50;;;11.30;84.80;;;;;;4881551;29;20162;-88
2022/11/03 00:16:45;;;;;;;2.85;0.40;;;11.30;84.90;;;;;;4869637;29;20046;-88
2022/11/03 00:19:15;;;;;;;4.88;0.32;;;11.30;85.00;;;;;;4839904;29;20460;-88
2022/11/03 00:21:44;;;;;;;2.95;0.30;;;11.20;85.00;;;;;;4873251;29;20053;-88
2022/11/03 00:24:12;;;;;;;1.42;0.30;;;11.20;85.10;;;;;;4854191;29;20061;-88
2022/11/03 00:26:39;;;;;;;3.08;0.63;;;11.20;85.10;;;;;;4860709;29;20061;-88
2022/11/03 00:29:09;;;;;;;1.70;0.20;;;11.30;85.20;;;;;;4868167;29;20046;-88
2022/11/03 00:31:41;;;;;;;1.60;0.30;;;11.30;85.10;;;;;;4845401;29;20049;-88
2022/11/03 00:34:08;;;;;;;2.53;0.20;;;11.30;85.30;;;;;;4848835;29;20054;-87
2022/11/03 00:36:41;;;;;;;3.72;0.40;;;11.20;85.30;;;;;;4857453;29;20059;-88
2022/11/03 00:39:09;;;;;;;2.05;0.30;;;11.20;85.30;;;;;;4875864;29;20045;-88
2022/11/03 00:41:37;;;;;;;2.60;0.50;;;11.20;85.40;;;;;;4860275;29;20137;-88
2022/11/03 00:44:07;;;;;;;2.38;0.30;;;11.20;85.40;;;;;;4845071;29;20058;-88
2022/11/03 00:46:34;;;;;;;1.75;0.20;;;11.20;85.50;;;;;;4860610;29;20049;-88
2022/11/03 00:49:05;;;;;;;1.65;0.50;;;11.20;85.60;;;;;;4842194;29;20046;-88
2022/11/03 00:51:35;;;;;;;1.00;0.22;;;11.20;85.60;;;;;;4828209;29;20111;-88
2022/11/03 00:54:04;;;;;;;3.63;0.60;;;11.20;85.70;;;;;;4837478;29;20535;-88
2022/11/03 00:56:36;;;;;;;1.02;0.30;;;11.10;85.80;;;;;;4879672;29;20517;-88
2022/11/03 00:59:07;;;;;;;1.58;0.43;;;11.10;85.90;;;;;;4871701;29;20041;-88
2022/11/03 01:01:44;;;;;;;2.28;0.50;;;11.10;86.00;;;;;;4883454;29;20049;-88
2022/11/03 01:07:03;;;;;;;4.22;0.32;;;11.10;86.10;;;;;;4864564;29;20105;-88
2022/11/03 01:09:38;;;;;;;2.60;0.43;;;11.10;86.20;;;;;;4864022;29;20056;-87
2022/11/03 01:12:12;;;;;;;4.00;0.40;;;11.00;86.30;;;;;;4876263;29;20050;-88
2022/11/03 01:14:41;;;;;;;2.58;0.30;;;11.10;86.40;;;;;;4854429;29;20073;-88
2022/11/03 01:17:22;;;;;;;3.58;0.60;;;11.00;86.40;;;;;;4879806;29;20132;-88
2022/11/03 01:19:49;;;;;;;3.50;0.40;;;11.00;86.50;;;;;;4878975;29;20049;-87
2022/11/03 01:22:17;;;;;;;1.65;0.30;;;11.00;86.60;;;;;;4882236;29;20053;-88
2022/11/03 01:24:45;;;;;;;3.85;0.32;;;11.00;86.60;;;;;;4898067;29;20125;-88
2022/11/03 01:27:15;;;;;;;0.70;0.20;;;11.00;86.70;;;;;;4866985;29;20132;-88
2022/11/03 01:29:42;;;;;;;6.78;0.50;;;11.00;86.80;;;;;;4897598;29;20052;-88
2022/11/03 01:32:10;;;;;;;2.67;0.82;;;11.00;87.00;;;;;;4875016;29;20053;-88
2022/11/03 01:34:41;;;;;;;3.97;0.40;;;11.00;86.90;;;;;;4878590;29;20582;-88
2022/11/03 01:37:08;;;;;;;4.65;0.40;;;11.00;86.90;;;;;;4877126;29;20565;-88
2022/11/03 01:39:35;;;;;;;2.78;0.43;;;11.00;87.00;;;;;;4869592;29;20049;-88
2022/11/03 01:42:03;;;;;;;1.00;0.30;;;11.00;87.00;;;;;;4844994;29;20082;-88
2022/11/03 01:44:38;;;;;;;1.50;0.20;;;10.90;87.00;;;;;;4859943;29;20050;-88
2022/11/03 01:47:21;;;;;;;4.18;0.43;;;11.00;87.10;;;;;;4878286;29;20104;-88
2022/11/03 01:49:53;;;;;;;1.95;0.20;;;10.90;87.20;;;;;;4878571;29;20050;-89
2022/11/03 01:52:32;;;;;;;2.33;0.30;;;10.90;87.30;;;;;;4879182;29;20049;-88
2022/11/03 01:55:07;;;;;;;3.35;0.35;;;10.90;87.40;;;;;;4883685;29;20048;-88
2022/11/03 01:57:46;;;;;;;2.05;0.30;;;10.90;87.50;;;;;;4847097;29;20551;-88
2022/11/03 02:00:14;;;;;;;4.80;0.63;;;10.90;87.50;;;;;;4844832;29;20050;-88
2022/11/03 02:02:44;;;;;;;4.38;0.40;;;10.80;87.50;;;;;;4844947;29;20484;-88
2022/11/03 02:05:13;;;;;;;5.18;0.73;;;10.90;87.60;;;;;;4860129;29;20114;-88
2022/11/03 02:08:08;;;;;;;1.20;0.20;;;10.80;87.60;;;;;;4874022;29;20053;-88
2022/11/03 02:10:36;;;;;;;1.20;0.30;;;10.80;87.70;;;;;;4866371;29;20494;-89
2022/11/03 02:13:21;;;;;;;2.47;0.28;;;10.80;87.80;;;;;;4886117;29;20043;-89
2022/11/03 02:15:52;;;;;;;3.60;0.30;;;10.80;87.90;;;;;;4857329;29;20053;-89
2022/11/03 02:18:23;;;;;;;3.92;0.40;;;10.80;88.00;;;;;;4862509;29;20089;-89
2022/11/03 02:21:08;;;;;;;2.65;0.40;;;10.70;88.10;;;;;;4863154;29;20049;-89
2022/11/03 02:23:53;;;;;;;3.13;0.32;;;10.70;88.70;;;;;;4875110;29;20499;-89
2022/11/03 02:26:23;;;;;;;3.72;0.40;;;10.70;88.10;;;;;;4844254;29;20058;-88
2022/11/03 02:28:54;;;;;;;2.10;0.30;;;10.70;88.20;;;;;;4844386;29;20133;-89
2022/11/03 02:31:41;;;;;;;3.78;0.45;;;10.70;88.30;;;;;;4844504;29;20042;-88
2022/11/03 02:34:24;;;;;;;2.70;0.50;;;10.70;88.30;;;;;;4877075;29;20081;-88
2022/11/03 02:36:58;;;;;;;1.20;0.20;;;10.70;88.30;;;;;;4845701;29;20138;-89
2022/11/03 02:39:35;;;;;;;1.20;0.35;;;10.70;88.30;;;;;;4844455;29;20056;-88
2022/11/03 02:42:03;;;;;;;6.63;0.40;;;10.70;88.40;;;;;;4859717;29;20083;-88
2022/11/03 02:44:34;;;;;;;3.22;0.40;;;10.70;88.40;;;;;;4829309;29;20053;-89
2022/11/03 02:47:05;;;;;;;1.85;0.30;;;10.70;88.40;;;;;;4858055;29;20473;-89
2022/11/03 02:49:38;;;;;;;4.50;0.60;;;10.70;88.40;;;;;;4842774;29;20058;-89
2022/11/03 02:52:26;;;;;;;2.08;0.30;;;10.70;88.40;;;;;;4846284;29;20072;-88
2022/11/03 02:54:56;;;;;;;2.63;0.40;;;10.70;88.50;;;;;;4862340;29;20055;-88
2022/11/03 02:57:29;;;;;;;4.20;0.55;;;10.70;88.50;;;;;;4864471;29;20060;-89
2022/11/03 03:00:02;;;;;;;3.70;0.57;;;10.70;88.60;;;;;;4847812;29;20053;-89
2022/11/03 03:02:43;;;;;;;3.67;0.50;;;10.70;88.60;;;;;;4862155;29;20065;-88
2022/11/03 03:05:15;;;;;;;5.32;0.50;;;10.80;88.70;;;;;;4861992;29;20057;-89
2022/11/03 03:07:48;;;;;;;2.10;0.35;;;10.80;88.60;;;;;;4830807;29;20058;-89
2022/11/03 03:10:25;;;;;;;3.17;0.68;;;10.80;88.60;;;;;;4843975;29;20448;-89
2022/11/03 03:12:56;;;;;;;2.33;0.40;;;10.80;88.60;;;;;;4843928;29;20050;-89
2022/11/03 03:15:39;;;;;;;3.00;0.30;;;10.80;88.60;;;;;;4843245;29;20487;-89
2022/11/03 03:18:22;;;;;;;1.83;0.50;;;10.80;88.70;;;;;;4843899;29;20056;-88
2022/11/03 03:21:05;;;;;;;2.72;0.40;;;10.80;88.70;;;;;;4843482;29;20053;-89
2022/11/03 03:23:48;;;;;;;3.40;0.50;;;10.80;88.80;;;;;;4850521;29;20064;-89
2022/11/03 03:26:25;;;;;;;;;;;10.80;88.80;;;;;;4861372;29;20095;-88
2022/11/03 03:29:17;;;;;;;2.22;0.40;;;10.70;88.90;;;;;;4865322;29;19923;-89
2022/11/03 03:31:52;;;;;;;1.35;0.30;;;10.80;88.90;;;;;;4861770;29;20102;-89
2022/11/03 03:34:21;;;;;;;3.63;0.55;;;10.70;88.90;;;;;;4846142;29;20053;-89
2022/11/03 03:37:04;;;;;;;4.30;0.60;;;10.70;89.00;;;;;;4842883;29;20057;-88
2022/11/03 03:39:37;;;;;;;2.47;0.22;;;10.70;89.00;;;;;;4828300;29;20046;-88
2022/11/03 03:42:09;;;;;;;4.82;1.08;;;10.70;89.00;;;;;;4818299;29;20463;-89
2022/11/03 03:44:41;;;;;;;0.88;0.30;;;10.70;89.10;;;;;;4861498;29;20422;-89
2022/11/03 03:47:21;;;;;;;1.55;0.20;;;10.70;89.20;;;;;;4861314;29;20095;-88
2022/11/03 03:49:51;;;;;;;3.58;0.30;;;10.70;89.20;;;;;;4846465;29;20053;-88
2022/11/03 03:52:18;;;;;;;2.28;0.22;;;10.70;89.30;;;;;;4845834;29;20140;-88
2022/11/03 03:54:45;;;;;;;3.58;0.30;;;10.70;89.30;;;;;;4858454;29;20495;-88
2022/11/03 03:57:16;;;;;;;1.33;0.40;;;10.70;89.30;;;;;;4845262;29;20499;-88
2022/11/03 03:59:46;;;;;;;1.92;0.32;;;10.70;89.30;;;;;;4842986;29;20551;-88
2022/11/03 04:02:14;;;;;;;1.42;0.30;;;10.70;89.40;;;;;;4843076;29;20050;-88
2022/11/03 04:04:41;;;;;;;3.40;0.60;;;10.70;89.40;;;;;;4842778;29;20491;-88
2022/11/03 04:09:54;;;;;;;2.13;0.28;;;10.70;89.50;;;;;;4856800;29;20113;-88
2022/11/03 04:23:31;;;;;;;2.38;0.25;;;10.70;89.60;;;;;;4863647;29;20044;-89
2022/11/03 04:26:03;;;;;;;2.13;0.70;;;10.70;89.50;;;;;;4863415;29;20057;-88
2022/11/03 04:28:30;;;;;;;1.45;0.25;;;10.70;89.60;;;;;;4858047;29;20083;-88
2022/11/03 04:30:58;;;;;;;8.23;0.52;;;10.70;89.60;;;;;;4827962;29;20037;-87
2022/11/03 04:33:27;;;;;;;2.13;0.40;;;10.70;89.60;;;;;;4848421;29;20045;-88
2022/11/03 04:35:58;;;;;;;1.90;0.38;;;10.80;89.70;;;;;;4863589;29;20108;-88
2022/11/03 04:38:28;;;;;;;2.83;0.35;;;10.80;89.70;;;;;;4848580;29;20045;-88
2022/11/03 04:40:58;;;;;;;1.27;0.30;;;10.80;89.80;;;;;;4848384;29;20045;-88
2022/11/03 04:43:45;;;;;;;1.75;0.25;;;10.80;89.70;;;;;;4848417;29;20056;-88
2022/11/03 04:46:16;;;;;;;4.28;0.50;;;10.80;89.70;;;;;;4863988;29;20045;-88
2022/11/03 04:48:46;;;;;;;2.20;0.38;;;10.90;89.80;;;;;;4878904;29;20057;-88
2022/11/03 04:51:18;;;;;;;4.95;0.52;;;10.90;89.80;;;;;;4863894;29;20110;-89
2022/11/03 04:54:15;;;;;;;2.10;0.55;;;10.90;89.70;;;;;;4878657;29;20045;-88
2022/11/03 04:56:45;;;;;;;3.05;0.40;;;10.90;89.80;;;;;;4862539;29;20100;-88
2022/11/03 04:59:14;;;;;;;1.13;0.30;;;10.80;89.80;;;;;;4879254;29;20576;-88
2022/11/03 05:01:43;;;;;;;2.42;0.38;;;10.90;89.90;;;;;;4869940;29;20083;-88
2022/11/03 05:04:13;;;;;;;5.90;0.47;;;10.90;89.90;;;;;;4848342;29;20053;-88
2022/11/03 05:06:51;;;;;;;2.30;0.10;;;10.90;89.80;;;;;;4878609;29;20061;-88
2022/11/03 05:09:30;;;;;;;3.63;0.40;;;10.90;89.80;;;;;;4867119;29;20459;-89
2022/11/03 05:11:59;;;;;;;2.20;0.50;;;10.90;89.90;;;;;;4879399;29;20554;-88
2022/11/03 05:14:30;;;;;;;2.85;0.30;;;10.90;89.90;;;;;;4833312;29;20066;-89
2022/11/03 05:17:01;;;;;;;2.05;0.30;;;10.90;89.90;;;;;;4860529;29;20049;-88
2022/11/03 05:19:36;;;;;;;1.55;0.38;;;10.90;90.00;;;;;;4862140;29;20045;-88
2022/11/03 05:22:04;;;;;;;4.60;0.22;;;10.90;90.00;;;;;;4863902;29;20139;-88
2022/11/03 05:24:32;;;;;;;4.25;0.40;;;11.00;90.00;;;;;;4862372;29;20054;-89
2022/11/03 05:26:59;;;;;;;2.58;0.20;;;11.00;90.00;;;;;;4876120;29;20399;-88
2022/11/03 05:29:33;;;;;;;2.10;0.85;;;11.00;90.00;;;;;;4848399;29;20045;-88
2022/11/03 05:32:00;;;;;;;0.52;0.20;;;11.00;90.00;;;;;;4856627;29;20506;-88
2022/11/03 05:34:41;;;;;;;2.40;0.30;;;11.00;90.00;;;;;;4861374;29;20140;-88
2022/11/03 05:37:23;;;;;;;3.60;0.35;;;11.00;90.00;;;;;;4876514;29;20128;-89
2022/11/03 05:40:16;;;;;;;1.08;0.30;;;11.00;90.00;;;;;;4864291;29;20146;-89
2022/11/03 05:42:46;;;;;;;2.13;0.43;;;11.00;90.10;;;;;;4879210;29;20050;-88
2022/11/03 05:45:21;;;;;;;0.70;0.20;;;10.90;90.10;;;;;;4848243;29;20499;-89
2022/11/03 05:47:54;;;;;;;1.20;0.30;;;11.00;90.10;;;;;;4866925;29;20085;-89
2022/11/03 05:50:28;;;;;;;2.63;0.28;;;11.00;90.10;;;;;;4878961;29;20494;-89
2022/11/03 05:53:17;;;;;;;2.50;0.68;;;11.00;90.40;;;;;;4848729;29;20418;-88
2022/11/03 05:55:44;;;;;;;1.75;0.32;;;11.00;90.10;;;;;;4862025;29;20057;-88
2022/11/03 05:58:28;;;;;;;2.85;0.25;;;11.00;90.10;;;;;;4863309;29;20045;-89
2022/11/03 06:00:59;;;;;;;1.83;0.30;;;11.00;90.10;;;;;;4863493;29;20136;-89
2022/11/03 06:03:30;;;;;;;1.80;0.20;;;11.00;90.30;;;;;;4846330;29;20149;-91
2022/11/03 06:06:01;;;;;;;1.40;0.20;;;11.00;90.10;;;;;;4877108;29;20110;-90
2022/11/03 06:08:35;;;;;;;1.17;0.30;;;11.00;90.10;;;;;;4848599;29;20298;-89
2022/11/03 06:11:14;;;;;;;2.13;0.28;;;11.00;90.10;;;;;;4866920;29;20060;-90
2022/11/03 06:13:41;;;;;;;2.45;0.20;;;11.00;90.10;;;;;;4879103;29;20050;-90
2022/11/03 06:16:38;;;;;;;3.22;0.20;;;11.00;90.10;;;;;;4878519;29;20045;-89
2022/11/03 06:19:28;;;;;;;1.08;0.20;;;11.10;90.10;;;;;;4863335;29;20106;-90
2022/11/03 06:22:01;;;;;;;2.78;0.30;;;11.10;90.10;;;;;;4878849;29;20061;-89
2022/11/03 06:24:33;;;;;;;1.00;0.20;;;11.10;90.20;;;;;;4849015;29;20149;-89
2022/11/03 06:27:02;;;;;;;4.75;0.30;;;11.10;90.20;;;;;;4848926;29;20583;-84
2022/11/03 06:29:33;;;;;;;2.67;0.38;;;11.10;90.10;;;;;;4856944;29;20045;-82
2022/11/03 06:32:00;;;;;;;3.58;0.63;;;11.10;90.10;;;;;;4861332;29;20045;-87
2022/11/03 06:34:35;;;;;;;1.98;0.28;;;11.10;90.20;;;;;;4867133;29;20132;-83
2022/11/03 06:37:26;;;;;;;1.25;0.30;;;11.10;90.20;;;;;;4864723;29;20053;-85
2022/11/03 06:39:59;;;;;;;0.88;0.30;;;11.10;90.20;;;;;;4846100;29;20101;-85
2022/11/03 06:42:30;;;;;;;1.23;0.20;;;11.10;90.20;;;;;;4876926;29;20046;-85
2022/11/03 06:45:00;;;;;;;2.55;0.35;;;11.10;90.20;;;;;;4859167;29;20085;-83
2022/11/03 06:47:28;;;;;;;3.70;0.63;;;11.10;90.30;;;;;;4877164;29;20110;-83
2022/11/03 06:50:18;;;;;;;4.78;0.60;;;11.10;90.20;;;;;;4865323;29;20050;-83
2022/11/03 06:52:48;;;;;;;1.50;0.40;;;11.20;90.20;;;;;;4861772;29;20053;-84
2022/11/03 06:55:27;;;;;;;2.72;0.50;;;11.10;90.20;;;;;;4861261;29;20057;-84
2022/11/03 06:58:16;;;;;;;1.95;0.40;;;11.20;90.20;;;;;;4870403;29;20057;-84
2022/11/03 07:00:47;;;;;;;1.50;0.63;;;11.20;90.20;;;;;;4859503;29;20049;-84
2022/11/03 07:03:26;;;;;;;3.70;0.50;;;11.20;90.20;;;;;;4845750;29;20045;-84
2022/11/03 07:06:10;;;;;;;2.28;0.52;;;11.20;90.20;;;;;;4873495;29;20045;-84
2022/11/03 07:08:47;;;;;;;3.92;0.60;;;11.30;90.30;;;;;;4869501;29;20053;-84
2022/11/03 07:11:26;;;;;;;4.40;0.68;;;11.30;90.20;;;;;;4847820;29;20106;-84
2022/11/03 07:14:18;;;;;;;2.67;0.50;;;11.30;90.20;;;;;;4845553;29;20051;-85
2022/11/03 07:17:03;;;;;;;3.88;0.30;;;11.30;90.20;;;;;;4874712;29;20050;-84
2022/11/03 07:19:36;;;;;;;3.80;0.40;;;11.30;90.30;;;;;;4867981;29;20073;-85
2022/11/03 07:22:24;;;;;;;3.25;0.50;;;11.40;90.30;;;;;;4855395;29;20144;-84
2022/11/03 07:24:58;;;;;;;2.13;0.35;;;11.40;90.20;;;;;;4872991;29;20077;-84
2022/11/03 07:27:31;;;;;;;1.10;0.30;;;11.40;90.20;;;;;;4857835;29;20140;-84
2022/11/03 07:30:09;;;;;;;1.80;0.52;;;11.50;90.30;;;;;;4845478;29;20148;-84
2022/11/03 07:32:36;;;;;;;3.55;0.30;;;11.50;90.30;;;;;;4858781;29;20053;-85
2022/11/03 07:35:17;;;;;;;3.70;0.40;;;11.50;90.20;;;;;;4846557;29;20053;-85
2022/11/03 07:37:45;;;;;;;5.95;0.40;;;11.60;90.20;;;;;;4851037;29;20495;-84
2022/11/03 07:40:21;;;;;;;2.72;0.30;;;11.60;90.20;;;;;;4875284;29;20110;-84
2022/11/03 07:42:48;;;;;;;3.03;0.40;;;11.60;90.20;;;;;;4878497;29;20520;-84
2022/11/03 07:45:36;;;;;;;2.08;0.40;;;11.70;90.20;;;;;;4856727;29;20102;-84
2022/11/03 07:48:14;;;;;;;4.15;0.40;;;11.70;90.20;;;;;;4875922;29;20049;-84
2022/11/03 07:50:41;;;;;;;2.25;0.30;;;11.80;90.10;;;;;;4855894;29;20080;-84
2022/11/03 07:53:18;;;;;;;2.38;0.80;;;11.80;90.10;;;;;;4875807;29;20086;-84
2022/11/03 07:55:57;;;;;;;4.55;0.40;;;11.90;90.10;;;;;;4855259;29;20125;-84
2022/11/03 07:58:38;;;;;;;3.20;0.50;;;11.90;90.10;;;;;;4869025;29;20144;-84
2022/11/03 08:01:29;;;;;;;2.03;0.70;;;12.00;90.10;;;;;;4851927;29;20101;-84
2022/11/03 08:04:05;;;;;;;5.00;0.52;;;12.10;90.10;;;;;;4873926;29;20526;-84
2022/11/03 08:06:32;;;;;;;3.55;0.70;;;12.10;90.00;;;;;;4875344;29;20053;-84
2022/11/03 08:08:59;;;;;;;3.25;0.70;;;12.10;90.00;;;;;;4856146;29;20057;-84
2022/11/03 08:11:27;;;;;;;3.75;0.60;;;12.20;90.00;;;;;;4851178;29;20114;-84
2022/11/03 08:13:59;;;;;;;5.18;0.80;;;12.20;90.00;;;;;;4859008;29;20090;-84
2022/11/03 08:16:26;;;;;;;3.90;0.50;;;12.20;90.00;;;;;;4852684;29;20121;-84
2022/11/03 08:18:53;;;;;;;2.88;0.40;;;12.30;90.00;;;;;;4847281;29;20074;-84
2022/11/03 08:21:20;;;;;;;3.38;0.47;;;12.30;90.00;;;;;;4873529;29;20140;-83
2022/11/03 08:23:47;;;;;;;2.80;0.50;;;12.40;90.00;;;;;;4851869;29;20132;-84
2022/11/03 08:26:17;;;;;;;4.20;0.40;;;12.40;90.00;;;;;;4869279;29;20168;-85
2022/11/03 08:28:45;;;;;;;3.15;0.40;;;12.40;90.00;;;;;;4846424;29;20099;-84
2022/11/03 08:31:13;;;;;;;3.83;0.40;;;12.40;89.90;;;;;;4866670;29;20487;-85
2022/11/03 08:33:41;;;;;;;3.90;0.52;;;12.50;89.90;;;;;;4882339;29;20060;-84
2022/11/03 08:36:09;;;;;;;3.00;0.60;;;12.50;89.80;;;;;;4854955;29;20053;-84
2022/11/03 08:38:38;;;;;;;5.00;0.70;;;12.50;89.80;;;;;;4844331;29;20053;-84
2022/11/03 08:41:06;;;;;;;2.47;0.52;;;12.60;89.80;;;;;;4865443;29;20483;-84
2022/11/03 08:43:33;;;;;;;3.35;0.40;;;12.60;89.80;;;;;;4866235;29;20130;-84
2022/11/03 08:46:00;;;;;;;3.65;0.50;;;12.60;89.80;;;;;;4882636;29;20049;-84
2022/11/03 08:48:41;;;;;;;5.85;0.63;;;12.60;89.80;;;;;;4847187;29;20033;-89
2022/11/03 08:51:12;;;;;;;2.60;0.50;;;12.60;89.80;;;;;;4838930;29;20080;-88
2022/11/03 08:53:41;;;;;;;3.28;0.50;;;12.60;89.70;;;;;;4878005;29;20557;-89
2022/11/03 08:56:09;;;;;;;5.82;0.82;;;12.70;89.70;;;;;;4863194;29;20147;-89
2022/11/03 08:58:44;;;;;;;4.30;1.30;;;12.70;89.70;;;;;;4867235;29;20149;-88
2022/11/03 09:01:12;;;;;;;3.90;0.75;;;12.70;89.60;;;;;;4844841;29;20070;-88
2022/11/03 09:03:40;;;;;;;4.55;0.77;;;12.80;89.50;;;;;;4845265;29;20070;-88
2022/11/03 09:06:07;;;;;;;2.17;0.50;;;12.90;89.40;;;;;;4829683;29;20042;-87
2022/11/03 09:08:35;;;;;;;2.75;0.80;;;12.90;89.20;;;;;;4860868;29;20048;-88
2022/11/03 09:11:22;;;;;;;1.92;0.40;;;13.00;89.20;;;;;;4860340;29;20049;-88
2022/11/03 09:13:51;;;;;;;4.40;0.50;;;13.10;89.10;;;;;;4863947;29;20052;-88
2022/11/03 09:16:18;;;;;;;4.10;0.40;;;13.10;88.90;;;;;;4864485;29;20049;-88
2022/11/03 09:18:48;;;;;;;3.10;0.55;;;13.20;88.80;;;;;;4858118;29;20132;-89
2022/11/03 09:21:15;;;;;;;4.47;0.70;;;13.20;88.80;;;;;;4861816;29;20555;-89
2022/11/03 09:23:42;;;;;;;4.78;0.77;;;13.30;88.80;;;;;;4861031;29;20486;-88
2022/11/03 09:26:09;;;;;;;3.85;0.52;;;13.20;88.70;;;;;;4860862;29;20042;-88
2022/11/03 09:28:37;;;;;;;2.75;0.52;;;13.30;88.70;;;;;;4860838;29;20049;-88
2022/11/03 09:31:06;;;;;;;2.90;0.63;;;13.30;88.60;;;;;;4861335;29;20141;-88
2022/11/03 09:33:33;;;;;;;3.67;0.80;;;13.40;88.50;;;;;;4866646;29;20136;-88
2022/11/03 09:36:01;;;;;;;1.98;0.50;;;13.40;88.40;;;;;;4867342;29;20502;-89
2022/11/03 09:38:28;;;;;;;2.75;0.55;;;13.50;88.20;;;;;;4851690;29;20049;-89
2022/11/03 09:40:55;;;;;;;2.90;0.50;;;13.60;88.10;;;;;;4851761;29;20064;-89
2022/11/03 09:43:25;;;;;;;2.30;0.50;;;13.70;87.90;;;;;;4836201;29;20045;-88
2022/11/03 09:45:54;;;;;;;3.80;0.50;;;13.80;87.80;;;;;;4861497;29;20052;-88
2022/11/03 09:48:21;;;;;;;4.18;0.60;;;13.90;87.60;;;;;;4866598;29;20061;-88
2022/11/03 09:50:52;;;;;;;3.67;1.08;;;13.90;87.50;;;;;;4866277;29;20145;-88
2022/11/03 09:53:23;;;;;;;;;;;14.00;87.40;;;;;;4872755;29;20084;-87
2022/11/03 09:55:50;;;;;;;1.48;0.50;;;14.00;87.40;;;;;;4865886;29;19943;-88
2022/11/03 09:58:18;;;;;;;3.05;0.88;;;14.10;87.30;;;;;;4863352;29;20054;-88
2022/11/03 10:00:45;;;;;;;2.00;0.40;;;14.10;87.10;;;;;;4863379;29;20042;-88
2022/11/03 10:03:15;;;;;;;3.65;0.55;;;14.10;87.10;;;;;;4871030;29;20079;-88
2022/11/03 10:05:46;;;;;;;4.78;0.60;;;14.10;87.10;;;;;;4881559;29;20049;-88
2022/11/03 10:08:31;;;;;;;5.93;0.82;;;14.00;87.10;;;;;;4878778;29;20060;-88
2022/11/03 10:11:05;;;;;;;3.90;1.00;;;14.00;87.20;;;;;;4846350;29;20045;-88
2022/11/03 10:13:38;;;;;;;2.83;0.55;;;13.90;87.30;;;;;;4847590;29;20041;-88
2022/11/03 10:16:10;;;;;;;5.22;0.70;;;13.90;87.30;;;;;;4847740;29;20144;-88
2022/11/03 10:18:37;;;;;;;;;;;13.90;87.40;;;;;;4850121;29;20075;-88
2022/11/03 10:21:28;;;;;;;3.15;0.45;;;13.90;87.30;;;;;;4847670;29;19924;-89
2022/11/03 10:23:56;;;;;;;2.97;0.40;;;13.90;87.20;;;;;;4854404;29;20131;-88
2022/11/03 10:26:23;;;;;;;2.03;0.40;;;14.00;87.10;;;;;;4832145;29;20403;-88
2022/11/03 10:29:03;;;;;;;4.65;0.60;;;14.00;86.90;;;;;;4883674;29;20075;-88
2022/11/03 10:31:40;;;;;;;4.72;0.70;;;14.10;86.80;;;;;;4882681;29;20045;-88
2022/11/03 10:34:26;;;;;;;3.85;0.60;;;14.00;86.60;;;;;;4847090;29;20084;-88
2022/11/03 10:37:23;;;;;;;4.03;0.73;;;14.10;86.50;;;;;;4860677;29;20113;-88
2022/11/03 10:39:52;;;;;;;5.32;0.50;;;14.10;86.50;;;;;;4862878;29;20185;-88
2022/11/03 10:42:33;;;;;;;2.45;0.57;;;14.10;86.60;;;;;;4873134;29;20054;-88
2022/11/03 10:45:18;;;;;;;3.22;0.52;;;14.10;86.40;;;;;;4847347;29;20106;-88
2022/11/03 10:48:05;;;;;;;2.60;0.50;;;14.10;86.40;;;;;;4843941;29;20057;-88
2022/11/03 10:50:32;;;;;;;3.42;0.98;;;14.10;86.30;;;;;;4843911;29;20054;-88
2022/11/03 10:53:00;;;;;;;2.80;0.60;;;14.10;86.30;;;;;;4829090;29;20050;-88
2022/11/03 10:55:27;;;;;;;4.20;0.50;;;14.10;86.20;;;;;;4843905;29;20460;-88
2022/11/03 10:57:56;;;;;;;2.85;0.43;;;14.10;86.20;;;;;;4843899;29;20156;-88
2022/11/03 11:00:26;;;;;;;2.42;0.47;;;14.10;86.00;;;;;;4828527;29;20050;-88
2022/11/03 11:02:58;;;;;;;4.35;0.50;;;14.20;86.00;;;;;;4864926;29;20057;-88
2022/11/03 11:05:27;;;;;;;2.13;0.57;;;14.20;85.90;;;;;;4829333;29;20110;-88
2022/11/03 11:07:54;;;;;;;5.78;1.00;;;14.20;85.80;;;;;;4860922;29;20057;-88
2022/11/03 11:10:32;;;;;;;2.42;0.70;;;14.20;85.80;;;;;;4883088;29;20063;-88
2022/11/03 11:13:18;;;;;;;4.82;0.55;;;14.20;85.70;;;;;;4854944;29;20046;-87
2022/11/03 11:15:49;;;;;;;2.67;0.75;;;14.30;85.60;;;;;;4843445;29;20049;-88
2022/11/03 11:18:27;;;;;;;2.13;0.60;;;14.30;85.50;;;;;;4849404;29;20037;-88
2022/11/03 11:20:56;;;;;;;3.03;0.50;;;14.40;85.20;;;;;;4873858;29;20143;-88
2022/11/03 11:23:26;;;;;;;2.50;0.55;;;14.40;84.90;;;;;;4858540;29;20060;-87
2022/11/03 11:26:09;;;;;;;3.17;0.60;;;14.50;84.80;;;;;;4854419;29;20483;-87
2022/11/03 11:28:44;;;;;;;5.22;0.77;;;14.50;84.50;;;;;;4843942;29;20054;-88
2022/11/03 11:31:32;;;;;;;;;;;14.60;84.20;;;;;;4850167;29;20061;-88
2022/11/03 11:34:15;;;;;;;4.20;0.70;;;14.50;84.20;;;;;;4876742;29;19924;-88
2022/11/03 11:36:44;;;;;;;2.05;0.50;;;14.60;84.20;;;;;;4844647;29;20514;-88
2022/11/03 11:39:32;;;;;;;2.35;0.60;;;14.50;84.00;;;;;;4858300;29;20050;-88
2022/11/03 11:42:18;;;;;;;2.03;0.40;;;14.60;84.10;;;;;;4857987;29;20050;-88
2022/11/03 11:44:56;;;;;;;2.08;0.60;;;14.60;84.20;;;;;;4873478;29;20082;-88
2022/11/03 11:47:44;;;;;;;1.33;0.50;;;14.70;84.00;;;;;;4887906;29;20041;-88
2022/11/03 11:50:41;;;;;;;3.80;0.50;;;14.80;83.70;;;;;;4879877;29;20041;-88
2022/11/03 11:53:20;;;;;;;2.83;0.52;;;14.80;83.70;;;;;;4866623;29;20137;-88
2022/11/03 11:56:04;;;;;;;2.85;0.70;;;14.90;83.60;;;;;;4873560;29;20451;-88
2022/11/03 11:58:55;;;;;;;2.15;0.45;;;15.00;83.40;;;;;;4835259;29;20058;-88
2022/11/03 12:01:36;;;;;;;2.95;0.30;;;15.00;83.10;;;;;;4838099;29;20145;-89
2022/11/03 12:04:19;;;;;;;3.70;0.50;;;15.00;83.20;;;;;;4842549;29;20057;-87
2022/11/03 12:06:54;;;;;;;2.10;0.50;;;15.10;83.20;;;;;;4860100;29;20121;-88
2022/11/03 12:09:26;;;;;;;2.05;0.50;;;15.10;83.00;;;;;;4845505;29;20053;-88
2022/11/03 12:11:59;;;;;;;2.13;0.45;;;15.20;83.00;;;;;;4860734;29;20109;-88
2022/11/03 12:14:39;;;;;;;3.90;0.68;;;15.20;82.80;;;;;;4877617;29;20101;-88
2022/11/03 12:17:17;;;;;;;2.65;0.50;;;15.20;82.80;;;;;;4862702;29;20078;-88
2022/11/03 12:19:52;;;;;;;4.72;0.55;;;15.20;82.60;;;;;;4842272;29;20050;-88
2022/11/03 12:22:24;;;;;;;4.93;0.60;;;15.30;82.70;;;;;;4842318;29;20058;-88
2022/11/03 12:24:55;;;;;;;3.10;0.70;;;15.30;82.60;;;;;;4874118;29;20069;-88
2022/11/03 12:27:28;;;;;;;4.53;1.05;;;15.30;82.50;;;;;;4845106;29;20049;-88
2022/11/03 12:30:03;;;;;;;2.75;0.70;;;15.40;82.30;;;;;;4860754;29;20057;-88
2022/11/03 12:32:30;;;;;;;3.13;0.60;;;15.40;82.20;;;;;;4845259;29;20056;-88
2022/11/03 12:35:07;;;;;;;5.63;1.10;;;15.30;82.20;;;;;;4846302;29;20065;-88
2022/11/03 12:37:35;;;;;;;6.45;0.98;;;15.40;82.00;;;;;;4842762;29;20049;-90
2022/11/03 12:40:02;;;;;;;2.00;0.50;;;15.40;82.00;;;;;;4874022;29;20034;-88
2022/11/03 12:42:29;;;;;;;2.65;0.60;;;15.50;81.90;;;;;;4866286;29;20053;-86
2022/11/03 12:45:13;;;;;;;8.73;0.77;;;15.50;81.80;;;;;;4879974;29;20490;-88
2022/11/03 12:47:46;;;;;;;2.33;0.68;;;15.60;81.50;;;;;;4859911;29;20519;-89
2022/11/03 12:50:15;;;;;;;2.88;0.50;;;15.60;81.40;;;;;;4856681;29;20411;-87
2022/11/03 12:52:47;;;;;;;2.80;0.50;;;15.50;81.30;;;;;;4849988;29;20570;-86
2022/11/03 12:55:17;;;;;;;2.72;0.50;;;15.60;81.40;;;;;;4850606;29;20144;-86
2022/11/03 12:57:45;;;;;;;2.05;0.52;;;15.60;81.40;;;;;;4862932;29;20503;-86
2022/11/03 13:00:13;;;;;;;2.75;0.50;;;15.60;81.40;;;;;;4846950;29;20046;-86
2022/11/03 13:02:40;;;;;;;2.10;0.50;;;15.60;81.40;;;;;;4851464;29;20493;-86
2022/11/03 13:05:08;;;;;;;3.10;0.43;;;15.60;81.40;;;;;;4859774;29;20152;-87
2022/11/03 13:07:35;;;;;;;2.63;0.32;;;15.60;81.40;;;;;;4835738;29;20060;-85
2022/11/03 13:10:05;;;;;;;2.00;0.35;;;15.60;81.30;;;;;;4851871;29;20050;-87
2022/11/03 13:12:40;;;;;;;1.75;0.50;;;15.70;81.80;;;;;;4857362;29;20115;-85
2022/11/03 13:15:09;;;;;;;2.05;0.60;;;15.70;81.00;;;;;;4874283;29;20033;-85
2022/11/03 13:17:39;;;;;;;2.28;0.55;;;15.70;80.80;;;;;;4871247;29;20042;-86
2022/11/03 13:20:31;;;;;;;4.22;0.52;;;15.70;80.90;;;;;;4855857;29;20541;-89
2022/11/03 13:23:02;;;;;;;3.10;0.70;;;15.70;80.90;;;;;;4863353;29;20118;-88
2022/11/03 13:25:32;;;;;;;2.28;0.38;;;15.70;80.90;;;;;;4862982;29;20052;-89
2022/11/03 13:28:01;;;;;;;3.40;0.52;;;15.60;81.00;;;;;;4864991;29;20054;-88
2022/11/03 13:30:32;;;;;;;1.02;0.45;;;15.60;80.90;;;;;;4864021;29;20136;-88
2022/11/03 13:33:07;;;;;;;1.48;0.30;;;15.50;81.10;;;;;;4873380;29;20137;-87
2022/11/03 13:35:37;;;;;;;1.67;0.30;;;15.50;81.00;;;;;;4856442;29;20057;-89
2022/11/03 13:38:04;;;;;;;1.15;0.40;;;15.50;81.00;;;;;;4861034;29;20133;-87